Time;durP1;ratioP1;P1;durP2;ratioP2;P2;SDS_P1;SDS_P2;PMS_P1;PMS_P2;Temp;Humidity;BMP_temperature;BMP_pressure;BME280_temperature;BME280_humidity;BME280_pressure;Samples;Min_cycle;Max_cycle;Signal;HPM_P1;HPM_P2
2023/05/16 00:00:36;;;;;;;10.10;5.10;;;;;;;14.71;91.46;100376.97;5035893;28;20478;-69
2023/05/16 00:03:05;;;;;;;11.93;5.33;;;;;;;14.65;91.80;100394.66;5035480;28;20490;-70
2023/05/16 00:05:31;;;;;;;16.97;6.03;;;;;;;14.60;91.95;100397.59;5035451;28;20435;-70
2023/05/16 00:07:58;;;;;;;9.17;4.90;;;;;;;14.66;92.01;100396.28;5035618;28;20469;-70
2023/05/16 00:10:26;;;;;;;13.63;5.73;;;;;;;14.66;92.24;100399.00;5035387;28;20439;-68
2023/05/16 00:12:52;;;;;;;11.07;5.30;;;;;;;14.64;92.07;100401.25;5035630;28;20439;-69
2023/05/16 00:15:19;;;;;;;12.17;5.97;;;;;;;14.52;93.07;100401.16;5035608;28;20443;-70
2023/05/16 00:17:46;;;;;;;11.17;5.10;;;;;;;14.54;92.94;100399.72;5035157;28;20877;-70
2023/05/16 00:20:16;;;;;;;17.07;6.77;;;;;;;14.53;93.23;100397.34;5035505;28;20471;-70
2023/05/16 00:22:42;;;;;;;14.57;6.50;;;;;;;14.56;93.40;100396.66;5035318;28;20498;-69
2023/05/16 00:25:09;;;;;;;14.40;4.93;;;;;;;14.43;94.28;100403.13;5035116;28;20490;-69
2023/05/16 00:27:37;;;;;;;15.17;5.83;;;;;;;14.37;94.42;100400.59;5049328;22;21011;-82
2023/05/16 00:30:05;;;;;;;26.23;6.30;;;;;;;14.37;94.93;100405.25;5056120;28;20525;-82
2023/05/16 00:32:32;;;;;;;10.63;5.40;;;;;;;14.34;95.36;100406.75;5056350;28;20456;-83
2023/05/16 00:34:58;;;;;;;11.13;5.30;;;;;;;14.37;95.30;100414.22;5059080;28;20865;-82
2023/05/16 00:37:25;;;;;;;12.87;6.47;;;;;;;14.37;95.67;100416.94;5062339;28;20509;-82
2023/05/16 00:39:52;;;;;;;12.37;6.37;;;;;;;14.29;96.44;100414.28;5062764;28;20496;-81
2023/05/16 00:42:19;;;;;;;12.90;6.00;;;;;;;14.30;97.07;100408.53;5062340;28;20431;-82
2023/05/16 00:44:47;;;;;;;11.00;6.07;;;;;;;14.23;97.40;100408.22;5062045;28;20551;-81
2023/05/16 00:47:14;;;;;;;12.93;6.30;;;;;;;14.12;98.16;100416.00;5061778;28;20979;-82
2023/05/16 00:49:41;;;;;;;15.90;6.50;;;;;;;14.06;98.49;100411.84;5061929;28;20438;-82
2023/05/16 00:52:08;;;;;;;31.70;7.47;;;;;;;14.03;99.51;100414.44;5061574;28;20499;-81
2023/05/16 00:54:34;;;;;;;14.20;6.90;;;;;;;14.06;98.46;100421.94;5062681;28;20530;-79
2023/05/16 00:57:02;;;;;;;14.40;7.00;;;;;;;13.95;99.15;100435.16;5060636;28;20979;-80
2023/05/16 00:59:29;;;;;;;17.10;7.73;;;;;;;13.85;99.98;100432.75;5059812;28;20438;-79
2023/05/16 01:01:57;;;;;;;16.47;6.67;;;;;;;13.81;99.66;100426.38;5063006;28;20454;-81
2023/05/16 01:04:24;;;;;;;15.70;7.00;;;;;;;13.71;99.48;100426.75;5063957;28;20573;-80
2023/05/16 01:06:51;;;;;;;13.60;6.53;;;;;;;13.60;99.69;100431.75;5063730;28;20540;-81
2023/05/16 01:09:18;;;;;;;16.03;6.70;;;;;;;13.50;100.00;100438.34;5064200;28;20442;-82
2023/05/16 01:11:53;;;;;;;12.77;6.73;;;;;;;13.51;100.00;100436.41;5064944;28;20446;-82
2023/05/16 01:14:29;;;;;;;20.17;6.33;;;;;;;13.50;99.00;100448.41;5064006;28;20444;-81
2023/05/16 01:17:05;;;;;;;15.10;7.10;;;;;;;13.40;99.68;100440.59;5063963;28;20517;-81
2023/05/16 01:19:47;;;;;;;13.37;6.13;;;;;;;13.23;99.85;100449.56;5063895;28;20494;-83
2023/05/16 01:22:20;;;;;;;15.00;7.47;;;;;;;13.23;99.21;100447.66;5062934;28;20829;-82
2023/05/16 01:24:57;;;;;;;14.47;7.20;;;;;;;13.14;99.55;100455.00;5064710;28;20505;-83
2023/05/16 01:27:26;;;;;;;13.10;6.20;;;;;;;13.10;99.60;100454.03;5061940;28;20501;-82
2023/05/16 01:29:56;;;;;;;21.73;6.87;;;;;;;13.02;100.00;100452.94;5060971;28;20450;-83
2023/05/16 01:32:22;;;;;;;11.87;6.33;;;;;;;12.98;100.00;100445.75;5060857;28;20472;-82
2023/05/16 01:34:50;;;;;;;11.30;5.93;;;;;;;12.99;99.49;100456.28;5061200;28;20442;-81
2023/05/16 01:37:24;;;;;;;14.60;6.20;;;;;;;12.94;99.06;100461.09;5060245;28;20465;-82
2023/05/16 01:39:56;;;;;;;12.80;6.23;;;;;;;12.81;99.32;100466.38;5060654;28;20532;-81
2023/05/16 01:42:27;;;;;;;14.93;7.00;;;;;;;12.75;99.73;100473.09;5060863;28;20435;-82
2023/05/16 01:44:59;;;;;;;12.80;6.60;;;;;;;12.72;98.86;100473.72;5060474;28;20502;-82
2023/05/16 01:47:28;;;;;;;14.47;6.80;;;;;;;12.66;99.10;100479.59;5060193;28;20458;-82
2023/05/16 01:50:00;;;;;;;15.13;6.63;;;;;;;12.58;99.71;100478.50;5060904;28;20457;-81
2023/05/16 01:52:32;;;;;;;12.10;5.93;;;;;;;12.55;99.04;100484.53;5059475;28;20451;-81
2023/05/16 01:55:00;;;;;;;15.90;6.90;;;;;;;12.56;98.73;100486.16;5060012;28;20435;-83
2023/05/16 01:57:29;;;;;;;13.90;6.90;;;;;;;12.42;98.44;100486.28;5060402;28;20466;-82
2023/05/16 01:59:57;;;;;;;15.10;7.43;;;;;;;12.30;99.62;100494.22;5060092;28;20526;-81
2023/05/16 02:02:24;;;;;;;13.93;7.10;;;;;;;12.24;99.73;100496.28;5060505;28;20470;-84
2023/05/16 02:04:51;;;;;;;19.60;6.50;;;;;;;12.23;99.70;100505.56;5060838;28;20518;-82
2023/05/16 02:07:18;;;;;;;15.53;7.90;;;;;;;12.31;98.66;100501.28;5061593;28;20521;-82
2023/05/16 02:09:44;;;;;;;13.47;7.23;;;;;;;12.27;98.28;100514.69;5062033;28;20438;-83
2023/05/16 02:12:11;;;;;;;13.63;6.83;;;;;;;12.22;98.36;100517.53;5059700;28;20473;-82
2023/05/16 02:14:39;;;;;;;14.80;7.50;;;;;;;12.15;98.66;100511.75;5060253;28;20443;-80
2023/05/16 02:17:06;;;;;;;19.13;8.30;;;;;;;12.20;98.55;100519.75;5058785;28;20495;-81
2023/05/16 02:19:32;;;;;;;14.60;8.07;;;;;;;12.27;98.16;100522.03;5060301;28;20439;-81
2023/05/16 02:21:59;;;;;;;10.60;5.33;;;;;;;12.30;98.02;100524.88;5060363;28;20939;-81
2023/05/16 02:24:25;;;;;;;14.10;6.47;;;;;;;12.34;97.17;100528.59;5060882;28;21080;-82
2023/05/16 02:26:52;;;;;;;14.60;7.37;;;;;;;12.34;97.42;100523.16;5063177;28;20473;-81
2023/05/16 02:29:19;;;;;;;19.33;7.50;;;;;;;12.31;97.95;100528.44;5061835;28;20489;-82
2023/05/16 02:31:47;;;;;;;16.10;7.47;;;;;;;12.34;97.68;100525.88;5065487;28;20442;-82
2023/05/16 02:34:14;;;;;;;18.47;7.90;;;;;;;12.33;97.13;100521.56;5061969;28;20472;-83
2023/05/16 02:36:40;;;;;;;15.77;7.90;;;;;;;12.27;97.42;100539.13;5060782;28;20497;-81
2023/05/16 02:39:08;;;;;;;16.70;7.77;;;;;;;12.36;97.08;100539.94;5065887;28;20466;-83
2023/05/16 02:41:35;;;;;;;11.57;6.00;;;;;;;12.33;97.46;100547.91;5070706;28;20422;-81
2023/05/16 02:44:02;;;;;;;18.50;7.37;;;;;;;12.33;97.20;100547.91;5077706;28;20533;-81
2023/05/16 02:46:30;;;;;;;12.97;6.50;;;;;;;12.30;97.83;100552.06;5077986;28;20446;-82
2023/05/16 02:48:58;;;;;;;13.10;6.97;;;;;;;12.32;97.45;100560.69;5070481;28;20457;-80
2023/05/16 02:51:27;;;;;;;15.70;7.87;;;;;;;12.27;97.65;100560.03;5060198;28;20481;-80
2023/05/16 02:53:55;;;;;;;16.20;7.73;;;;;;;12.32;97.49;100568.06;5060657;28;20466;-81
2023/05/16 02:56:22;;;;;;;19.90;8.37;;;;;;;12.34;96.71;100563.88;5060575;28;20451;-79
2023/05/16 02:58:50;;;;;;;18.53;7.47;;;;;;;12.30;96.73;100565.63;5059004;28;20481;-81
2023/05/16 03:01:17;;;;;;;13.40;7.13;;;;;;;12.25;96.89;100565.78;5057947;28;20473;-80
2023/05/16 03:03:44;;;;;;;16.60;8.27;;;;;;;12.23;96.82;100570.72;5057495;28;20940;-81
2023/05/16 03:06:12;;;;;;;14.37;7.67;;;;;;;12.28;96.70;100578.72;5057849;28;20476;-80
2023/05/16 03:08:39;;;;;;;14.97;7.87;;;;;;;12.31;96.69;100580.84;5058688;28;20852;-82
2023/05/16 03:11:05;;;;;;;16.63;7.43;;;;;;;12.23;96.83;100581.59;5058937;28;20459;-84
2023/05/16 03:13:32;;;;;;;13.17;7.00;;;;;;;12.19;97.54;100585.25;5057967;28;20470;-83
2023/05/16 03:15:59;;;;;;;16.67;8.07;;;;;;;12.21;97.49;100596.56;5059701;28;20944;-83
2023/05/16 03:18:25;;;;;;;17.10;8.33;;;;;;;12.26;97.03;100601.88;5059489;28;20542;-82
2023/05/16 03:20:52;;;;;;;12.27;6.93;;;;;;;12.21;97.42;100604.72;5057314;28;20489;-82
2023/05/16 03:23:21;;;;;;;15.47;7.30;;;;;;;12.24;97.15;100602.19;5055730;28;20554;-83
2023/05/16 03:25:47;;;;;;;16.50;7.87;;;;;;;12.29;96.91;100615.63;5058202;28;20536;-83
2023/05/16 03:28:15;;;;;;;23.80;9.30;;;;;;;12.23;97.03;100614.19;5059056;28;20517;-83
2023/05/16 03:30:41;;;;;;;20.53;8.50;;;;;;;12.25;96.99;100613.84;5059789;28;20438;-83
2023/05/16 03:33:08;;;;;;;18.67;8.20;;;;;;;12.27;96.88;100623.31;5060454;28;20449;-83
2023/05/16 03:35:35;;;;;;;14.63;6.80;;;;;;;12.27;96.38;100626.03;5059525;28;20434;-83
2023/05/16 03:38:02;;;;;;;23.50;8.10;;;;;;;12.28;96.25;100624.09;5061158;28;20521;-82
2023/05/16 03:40:30;;;;;;;14.20;7.97;;;;;;;12.23;96.22;100616.09;5060004;28;20478;-83
2023/05/16 03:42:57;;;;;;;14.20;6.97;;;;;;;12.19;96.63;100620.53;5059846;28;20477;-83
2023/05/16 03:45:24;;;;;;;26.67;9.50;;;;;;;12.08;97.32;100620.78;5062225;28;20522;-82
2023/05/16 03:47:50;;;;;;;16.53;8.07;;;;;;;11.99;97.71;100603.63;5063659;28;20955;-82
2023/05/16 03:50:17;;;;;;;21.43;8.10;;;;;;;12.01;97.66;100612.28;5066413;28;20431;-82
2023/05/16 03:52:44;;;;;;;16.83;7.37;;;;;;;12.01;97.53;100617.72;5064411;28;20442;-82
2023/05/16 03:55:13;;;;;;;22.73;9.93;;;;;;;12.02;97.46;100613.09;5065521;28;20466;-83
2023/05/16 03:57:42;;;;;;;16.07;7.80;;;;;;;12.01;97.45;100614.22;5062497;28;20466;-84
2023/05/16 04:00:11;;;;;;;19.33;8.23;;;;;;;12.02;97.47;100613.88;5058717;28;20454;-85
2023/05/16 04:02:39;;;;;;;17.20;7.80;;;;;;;12.06;97.28;100611.34;5059572;28;20461;-83
2023/05/16 04:05:07;;;;;;;17.13;9.47;;;;;;;12.00;97.35;100609.91;5070286;28;20503;-84
2023/05/16 04:07:34;;;;;;;21.00;8.87;;;;;;;12.00;97.60;100615.31;5069960;28;20454;-81
2023/05/16 04:10:01;;;;;;;17.27;7.37;;;;;;;12.02;97.01;100623.94;5063975;28;20461;-81
2023/05/16 04:12:27;;;;;;;19.73;8.90;;;;;;;11.97;97.33;100624.88;5056770;28;20438;-82
2023/05/16 04:14:55;;;;;;;18.90;8.90;;;;;;;11.91;97.53;100628.00;5056855;28;20951;-81
2023/05/16 04:17:22;;;;;;;15.33;8.30;;;;;;;11.90;98.02;100629.94;5057052;28;20467;-82
2023/05/16 04:19:48;;;;;;;14.60;6.90;;;;;;;11.92;97.82;100635.06;5056568;28;20477;-84
2023/05/16 04:22:15;;;;;;;13.60;7.37;;;;;;;11.92;97.73;100644.00;5056666;28;20530;-82
2023/05/16 04:24:42;;;;;;;19.07;8.87;;;;;;;11.97;96.90;100662.09;5057234;28;20486;-82
2023/05/16 04:27:09;;;;;;;14.87;7.77;;;;;;;11.94;96.79;100657.25;5056554;28;20529;-81
2023/05/16 04:29:35;;;;;;;16.30;7.83;;;;;;;11.91;97.28;100668.72;5056371;28;20406;-83
2023/05/16 04:32:06;;;;;;;18.97;9.50;;;;;;;11.81;97.50;100662.41;5056979;28;20612;-83
2023/05/16 04:34:33;;;;;;;18.80;8.07;;;;;;;11.79;97.40;100664.63;5056179;28;21019;-82
2023/05/16 04:37:00;;;;;;;19.67;8.30;;;;;;;11.72;97.57;100672.38;5056308;28;20493;-83
2023/05/16 04:39:26;;;;;;;14.07;7.30;;;;;;;11.78;97.55;100681.22;5056252;28;20529;-83
2023/05/16 04:41:53;;;;;;;15.87;7.60;;;;;;;11.78;97.16;100681.22;5056646;28;20473;-83
2023/05/16 04:44:20;;;;;;;12.47;6.87;;;;;;;11.73;97.42;100671.28;5056516;28;20486;-82
2023/05/16 04:46:46;;;;;;;18.97;8.23;;;;;;;11.77;96.84;100677.69;5056294;28;20471;-82
2023/05/16 04:49:15;;;;;;;20.20;7.93;;;;;;;11.80;96.33;100679.78;5055892;28;20509;-81
2023/05/16 04:51:41;;;;;;;20.23;7.80;;;;;;;11.78;97.20;100684.75;5056601;28;20442;-82
2023/05/16 04:54:09;;;;;;;15.33;7.63;;;;;;;11.76;96.47;100686.94;5061435;28;20522;-83
2023/05/16 04:56:36;;;;;;;17.70;7.80;;;;;;;11.78;96.09;100692.88;5060973;28;20502;-81
2023/05/16 04:59:03;;;;;;;16.63;6.80;;;;;;;11.68;96.89;100703.16;5060495;28;20572;-81
2023/05/16 05:01:29;;;;;;;15.53;7.27;;;;;;;11.74;96.68;100694.59;5063478;28;20834;-82
2023/05/16 05:03:56;;;;;;;15.20;8.20;;;;;;;11.77;96.28;100704.81;5061100;28;20480;-81
2023/05/16 05:06:24;;;;;;;16.00;7.33;;;;;;;11.75;96.44;100708.97;5055790;28;20474;-80
2023/05/16 05:08:51;;;;;;;13.00;6.40;;;;;;;11.78;96.19;100708.38;5056058;28;20462;-80
2023/05/16 05:11:18;;;;;;;13.43;6.73;;;;;;;11.85;95.51;100722.34;5056862;28;20449;-80
2023/05/16 05:13:44;;;;;;;15.30;7.50;;;;;;;11.83;95.97;100721.84;5056587;28;20442;-81
2023/05/16 05:16:12;;;;;;;14.50;6.93;;;;;;;11.86;95.63;100727.47;5055846;28;20820;-81
2023/05/16 05:18:39;;;;;;;12.73;6.67;;;;;;;11.80;96.17;100742.22;5055572;28;20458;-82
2023/05/16 05:21:05;;;;;;;14.43;6.27;;;;;;;11.81;95.97;100738.38;5055660;28;20533;-80
2023/05/16 05:23:34;;;;;;;18.23;8.17;;;;;;;11.90;95.84;100748.56;5055911;28;20438;-82
2023/05/16 05:26:01;;;;;;;14.63;7.13;;;;;;;11.93;95.68;100745.25;5056963;28;20853;-80
2023/05/16 05:28:27;;;;;;;23.20;7.13;;;;;;;11.73;95.50;100746.44;5056562;28;21068;-80
2023/05/16 05:30:54;;;;;;;13.70;7.60;;;;;;;11.78;94.00;100752.59;5058657;28;20470;-80
2023/05/16 05:33:26;;;;;;;19.50;7.93;;;;;;;11.85;93.88;100749.47;5058239;28;20521;-81
2023/05/16 05:35:54;;;;;;;16.17;6.53;;;;;;;11.84;94.35;100748.69;5057588;28;20803;-81
2023/05/16 05:38:20;;;;;;;15.53;7.43;;;;;;;11.87;92.61;100758.13;5057313;28;20470;-82
2023/05/16 05:40:49;;;;;;;14.53;6.30;;;;;;;11.94;91.84;100760.41;5057768;28;20493;-81
2023/05/16 05:43:16;;;;;;;12.97;5.60;;;;;;;11.94;91.82;100765.84;5056315;28;20442;-82
2023/05/16 05:45:43;;;;;;;20.73;6.70;;;;;;;11.95;92.26;100775.59;5056259;28;20481;-84
2023/05/16 05:48:10;;;;;;;21.03;6.67;;;;;;;12.00;91.22;100780.94;5056059;28;20497;-82
2023/05/16 05:50:37;;;;;;;10.43;5.33;;;;;;;12.02;90.93;100778.69;5056040;28;20450;-81
2023/05/16 05:53:04;;;;;;;13.30;6.33;;;;;;;12.05;90.64;100781.59;5055962;28;20544;-81
2023/05/16 05:55:31;;;;;;;12.37;6.20;;;;;;;12.06;90.65;100777.78;5055484;28;20489;-82
2023/05/16 05:57:59;;;;;;;11.67;6.30;;;;;;;12.10;89.97;100777.97;5055405;28;20525;-82
2023/05/16 06:00:25;;;;;;;12.23;5.43;;;;;;;12.12;89.35;100781.16;5055367;28;20525;-80
2023/05/16 06:02:52;;;;;;;12.23;5.53;;;;;;;12.10;89.58;100783.41;5055065;28;20525;-81
2023/05/16 06:05:18;;;;;;;11.83;6.20;;;;;;;12.11;90.32;100787.72;5055205;28;20573;-81
2023/05/16 06:07:45;;;;;;;10.67;5.30;;;;;;;12.05;90.30;100797.91;5055105;28;20515;-80
2023/05/16 06:10:12;;;;;;;16.73;6.20;;;;;;;12.11;89.77;100804.00;5056277;28;20442;-84
2023/05/16 06:12:38;;;;;;;12.50;5.47;;;;;;;12.04;89.48;100803.63;5054823;28;20940;-79
2023/05/16 06:15:08;;;;;;;13.23;4.90;;;;;;;12.02;89.88;100798.50;5055150;28;20438;-83
2023/05/16 06:17:35;;;;;;;10.70;5.40;;;;;;;11.91;90.29;100802.56;5056909;28;20552;-79
2023/05/16 06:20:01;;;;;;;9.57;4.27;;;;;;;11.90;90.50;100806.34;5061928;28;20436;-79
2023/05/16 06:22:28;;;;;;;15.63;5.07;;;;;;;12.06;89.27;100809.56;5064230;28;20484;-79
2023/05/16 06:24:54;;;;;;;10.80;4.60;;;;;;;12.03;88.92;100804.72;5063975;28;21037;-79
2023/05/16 06:27:21;;;;;;;13.13;4.73;;;;;;;12.05;89.03;100803.31;5063193;28;20509;-79
2023/05/16 06:29:48;;;;;;;11.43;4.30;;;;;;;12.03;89.00;100810.97;5060518;28;20434;-79
2023/05/16 06:32:16;;;;;;;8.80;4.53;;;;;;;12.01;89.42;100804.25;5057033;28;20473;-80
2023/05/16 06:34:42;;;;;;;9.50;4.43;;;;;;;12.03;89.85;100816.38;5056030;28;20442;-78
2023/05/16 06:37:09;;;;;;;10.93;4.80;;;;;;;11.99;90.72;100817.31;5053912;28;20512;-79
2023/05/16 06:39:36;;;;;;;9.63;4.43;;;;;;;12.07;90.32;100822.03;5054459;28;20446;-79
2023/05/16 06:42:02;;;;;;;10.93;4.13;;;;;;;12.24;88.31;100824.91;5055310;28;20975;-78
2023/05/16 06:44:29;;;;;;;10.30;3.80;;;;;;;12.27;88.42;100826.22;5057570;28;20469;-79
2023/05/16 06:46:56;;;;;;;10.17;3.13;;;;;;;12.33;87.97;100833.91;5057019;28;20908;-79
2023/05/16 06:49:24;;;;;;;9.47;3.90;;;;;;;12.38;87.51;100831.09;5059175;28;20446;-79
2023/05/16 06:51:50;;;;;;;6.87;2.93;;;;;;;12.40;87.34;100835.44;5057029;28;20438;-80
2023/05/16 06:54:17;;;;;;;13.30;4.33;;;;;;;12.43;86.66;100840.22;5058341;28;20442;-78
2023/05/16 06:56:45;;;;;;;9.40;3.50;;;;;;;12.35;86.66;100839.88;5054186;28;21024;-80
2023/05/16 06:59:12;;;;;;;9.83;3.10;;;;;;;12.33;87.10;100855.66;5054845;28;20486;-79
2023/05/16 07:01:39;;;;;;;9.07;2.50;;;;;;;12.20;87.24;100848.34;5054401;28;20439;-78
2023/05/16 07:04:06;;;;;;;8.87;3.10;;;;;;;12.32;87.76;100864.13;5054400;28;20482;-78
2023/05/16 07:06:34;;;;;;;7.30;2.90;;;;;;;12.40;86.90;100866.13;5054036;28;20547;-78
2023/05/16 07:09:01;;;;;;;9.93;3.17;;;;;;;12.47;86.10;100865.69;5053569;28;20446;-78
2023/05/16 07:11:27;;;;;;;6.50;2.00;;;;;;;12.59;85.43;100863.22;5053706;28;20470;-78
2023/05/16 07:13:54;;;;;;;9.10;3.80;;;;;;;12.58;84.90;100869.78;5052960;28;20895;-77
2023/05/16 07:16:21;;;;;;;7.20;2.63;;;;;;;12.47;86.30;100868.41;5053422;28;20485;-77
2023/05/16 07:18:47;;;;;;;7.80;2.50;;;;;;;12.56;85.58;100861.91;5053928;28;20476;-78
2023/05/16 07:21:14;;;;;;;8.73;3.40;;;;;;;12.69;85.02;100873.84;5055775;28;20541;-78
2023/05/16 07:23:42;;;;;;;6.90;2.20;;;;;;;12.74;84.37;100872.94;5057753;28;20492;-78
2023/05/16 07:26:08;;;;;;;7.77;2.47;;;;;;;12.63;86.38;100873.19;5057311;28;20573;-78
2023/05/16 07:28:35;;;;;;;6.87;2.30;;;;;;;12.76;85.00;100876.97;5057603;28;20529;-78
2023/05/16 07:31:02;;;;;;;9.23;3.07;;;;;;;12.76;83.61;100885.13;5057149;28;20541;-77
2023/05/16 07:33:28;;;;;;;9.17;2.37;;;;;;;12.80;84.50;100883.38;5057299;28;20796;-78
2023/05/16 07:35:55;;;;;;;7.77;2.57;;;;;;;12.87;83.92;100881.03;5057117;28;20477;-78
2023/05/16 07:38:22;;;;;;;6.50;2.10;;;;;;;12.95;83.52;100884.91;5057312;28;20466;-78
2023/05/16 07:40:50;;;;;;;13.70;2.10;;;;;;;12.93;82.94;100883.63;5057603;28;20529;-78
2023/05/16 07:43:16;;;;;;;7.00;2.30;;;;;;;12.75;83.26;100894.38;5057419;28;20480;-77
2023/05/16 07:45:43;;;;;;;7.90;3.03;;;;;;;12.86;82.71;100892.22;5057158;28;20581;-78
2023/05/16 07:48:10;;;;;;;8.13;2.20;;;;;;;12.91;82.77;100891.28;5057062;28;20558;-78
2023/05/16 07:50:37;;;;;;;6.10;1.90;;;;;;;12.92;83.68;100895.59;5056754;28;20958;-78
2023/05/16 07:53:03;;;;;;;5.93;1.57;;;;;;;12.97;82.53;100887.31;5058423;28;20474;-81
2023/05/16 07:55:30;;;;;;;5.80;1.40;;;;;;;12.98;82.72;100883.50;5057611;28;20538;-78
2023/05/16 07:57:58;;;;;;;6.77;2.10;;;;;;;12.99;82.21;100885.91;5057590;28;20458;-79
2023/05/16 08:00:25;;;;;;;5.20;1.50;;;;;;;12.83;83.03;100892.81;5057333;28;20457;-78
2023/05/16 08:02:51;;;;;;;5.87;2.23;;;;;;;12.81;83.67;100901.28;5057027;28;20532;-78
2023/05/16 08:05:18;;;;;;;5.67;1.77;;;;;;;12.91;82.96;100904.88;5057081;28;21031;-78
2023/05/16 08:07:45;;;;;;;8.30;2.30;;;;;;;12.88;82.41;100901.69;5057960;28;20489;-78
2023/05/16 08:10:11;;;;;;;7.03;2.30;;;;;;;12.80;82.55;100902.41;5062913;28;20509;-78
2023/05/16 08:12:38;;;;;;;6.03;1.77;;;;;;;12.73;82.96;100902.03;5061221;28;20438;-78
2023/05/16 08:15:09;;;;;;;6.37;1.30;;;;;;;12.79;83.04;100902.69;5060225;28;21020;-79
2023/05/16 08:17:36;;;;;;;5.80;1.83;;;;;;;12.75;82.79;100907.16;5056787;28;20470;-79
2023/05/16 08:20:03;;;;;;;6.03;1.57;;;;;;;12.75;82.99;100913.41;5056771;28;20452;-78
2023/05/16 08:22:29;;;;;;;5.63;1.67;;;;;;;12.67;82.85;100911.41;5056308;28;20473;-78
2023/05/16 08:24:56;;;;;;;5.43;1.17;;;;;;;12.71;82.41;100917.84;5056094;28;20454;-78
2023/05/16 08:27:23;;;;;;;8.73;1.40;;;;;;;12.73;82.61;100928.41;5055540;28;20477;-78
2023/05/16 08:29:50;;;;;;;6.73;1.73;;;;;;;12.84;81.15;100927.06;5057159;28;20435;-79
2023/05/16 08:32:18;;;;;;;7.40;1.73;;;;;;;12.94;81.48;100928.75;5056762;28;20446;-79
2023/05/16 08:34:44;;;;;;;6.23;1.17;;;;;;;13.00;81.17;100919.34;5056768;28;20544;-78
2023/05/16 08:37:11;;;;;;;5.40;1.70;;;;;;;12.97;80.89;100928.94;5056947;28;20458;-78
2023/05/16 08:39:38;;;;;;;7.43;2.00;;;;;;;13.01;80.40;100926.38;5056969;28;20447;-78
2023/05/16 08:42:06;;;;;;;5.50;1.33;;;;;;;12.99;80.95;100945.72;5056928;28;20537;-79
2023/05/16 08:44:34;;;;;;;6.97;1.43;;;;;;;13.02;81.78;100942.41;5057186;28;20867;-76
2023/05/16 08:47:11;;;;;;;6.10;1.63;;;;;;;13.23;80.40;100934.56;5057113;28;20509;-78
2023/05/16 08:49:41;;;;;;;6.53;1.50;;;;;;;13.40;78.63;100931.16;5057434;28;20428;-78
2023/05/16 08:52:09;;;;;;;6.90;1.40;;;;;;;13.39;79.22;100943.16;5056617;28;20457;-78
2023/05/16 08:54:36;;;;;;;12.93;2.27;;;;;;;13.30;78.95;100939.59;5056771;28;20470;-78
2023/05/16 08:57:03;;;;;;;5.47;1.23;;;;;;;13.21;79.42;100935.97;5056356;28;20537;-78
2023/05/16 08:59:31;;;;;;;5.13;1.30;;;;;;;13.24;79.92;100929.94;5056218;28;20531;-78
2023/05/16 09:01:58;;;;;;;4.90;1.20;;;;;;;13.24;79.20;100933.47;5055805;28;20620;-78
2023/05/16 09:04:26;;;;;;;5.70;1.47;;;;;;;13.30;78.13;100929.50;5055327;28;20441;-79
2023/05/16 09:06:54;;;;;;;7.80;1.30;;;;;;;13.30;78.07;100929.50;5056882;28;20490;-78
2023/05/16 09:09:20;;;;;;;4.73;0.93;;;;;;;13.19;78.99;100944.44;5056921;28;20529;-78
2023/05/16 09:11:47;;;;;;;5.13;1.47;;;;;;;13.23;78.97;100940.00;5056735;28;20489;-79
2023/05/16 09:14:14;;;;;;;7.20;1.30;;;;;;;13.28;79.20;100936.34;5057151;28;20542;-79
2023/05/16 09:16:41;;;;;;;5.50;1.53;;;;;;;13.45;76.99;100930.22;5058740;28;20545;-78
2023/05/16 09:19:12;;;;;;;10.63;1.23;;;;;;;13.43;77.68;100927.03;5056308;28;20904;-79
2023/05/16 09:21:40;;;;;;;4.50;0.83;;;;;;;13.45;76.50;100931.03;5055859;28;20435;-78
2023/05/16 09:24:10;;;;;;;6.60;1.17;;;;;;;13.44;76.80;100934.88;5056740;28;20529;-78
2023/05/16 09:26:38;;;;;;;7.40;1.53;;;;;;;13.58;75.92;100946.47;5055181;28;20490;-78
2023/05/16 09:29:11;;;;;;;6.73;0.90;;;;;;;13.42;76.07;100948.00;5054996;28;20823;-78
2023/05/16 09:31:37;;;;;;;6.20;1.00;;;;;;;13.30;76.33;100943.09;5058486;28;20437;-78
2023/05/16 09:34:07;;;;;;;6.87;1.27;;;;;;;13.15;77.40;100954.34;5056875;28;20525;-78
2023/05/16 09:36:34;;;;;;;5.50;1.60;;;;;;;13.23;77.82;100950.09;5055428;28;20497;-79
2023/05/16 09:39:02;;;;;;;6.57;1.60;;;;;;;13.23;77.89;100944.66;5055720;28;20458;-77
2023/05/16 09:41:33;;;;;;;9.23;1.40;;;;;;;13.25;77.82;100948.69;5055502;28;20500;-78
2023/05/16 09:43:59;;;;;;;6.03;1.70;;;;;;;13.17;78.19;100954.03;5055350;28;20434;-78
2023/05/16 09:46:27;;;;;;;9.37;1.80;;;;;;;13.22;78.10;100962.06;5055430;28;20501;-78
2023/05/16 09:48:55;;;;;;;7.83;1.23;;;;;;;13.14;78.69;100960.88;5055740;28;20453;-79
2023/05/16 09:51:33;;;;;;;4.60;1.00;;;;;;;13.09;79.45;100967.25;5055179;28;20438;-79
2023/05/16 09:54:04;;;;;;;7.40;1.70;;;;;;;13.22;79.29;100965.59;5053883;28;20951;-79
2023/05/16 09:57:04;;;;;;;6.33;1.33;;;;;;;13.28;78.19;100972.56;5055411;28;20512;-79
2023/05/16 10:00:00;;;;;;;;;;;;;;;;;;;;;
2023/05/16 10:03:13;;;;;;;;;;;;;;;;;;;;;
2023/05/16 10:05:48;;;;;;;6.40;1.80;;;;;;;13.10;79.45;100979.75;4888321;29;20446;-80
2023/05/16 10:18:40;;;;;;;;;;;;;;;;;;;;;
2023/05/16 10:21:17;;;;;;;9.13;2.00;;;;;;;13.57;77.26;100982.16;4874426;29;20458;-78
2023/05/16 10:44:01;;;;;;;5.30;1.27;;;;;;;13.20;75.78;100984.13;4787096;29;21042;-79
2023/05/16 10:49:32;;;;;;;8.50;1.77;;;;;;;14.02;73.52;101001.94;4900030;29;20454;-79
2023/05/16 10:52:07;;;;;;;12.33;1.30;;;;;;;14.25;70.51;101002.66;4913343;29;20453;-79
2023/05/16 10:54:36;;;;;;;14.90;1.60;;;;;;;14.47;72.44;101003.69;4916339;29;20457;-80
2023/05/16 10:57:10;;;;;;;9.30;1.43;;;;;;;14.83;71.07;101007.03;4924528;29;20485;-78
2023/05/16 10:59:46;;;;;;;8.50;1.90;;;;;;;15.06;66.48;101012.34;4903272;29;20452;-79
2023/05/16 11:02:42;;;;;;;10.00;1.20;;;;;;;15.04;64.55;101012.63;4903138;29;21019;-79
2023/05/16 11:06:00;;;;;;;;;;;;;;;;;;;;;
2023/05/16 11:09:17;;;;;;;5.53;1.40;;;;;;;14.61;65.45;101007.16;4948634;28;20470;-80
2023/05/16 11:15:27;;;;;;;5.30;1.10;;;;;;;14.74;65.40;101005.38;4930864;29;20816;-78
2023/05/16 11:18:27;;;;;;;9.10;1.53;;;;;;;14.76;64.31;101001.22;4939068;29;20452;-79
2023/05/16 11:21:25;;;;;;;;;;;;;;;;;;;;;
2023/05/16 11:24:33;;;;;;;6.10;1.90;;;;;;;15.68;61.05;101003.00;4939206;29;20446;-79
2023/05/16 11:36:56;;;;;;;5.40;1.27;;;;;;;15.93;58.10;101014.94;4966581;28;20871;-79
2023/05/16 11:39:24;;;;;;;14.63;1.30;;;;;;;15.81;58.89;101019.19;5059499;28;20434;-79
2023/05/16 11:41:51;;;;;;;5.73;1.40;;;;;;;15.87;59.88;101017.88;5060061;28;20450;-78
2023/05/16 11:44:17;;;;;;;9.47;1.60;;;;;;;15.64;60.96;101005.56;5060039;28;20442;-79
2023/05/16 11:46:44;;;;;;;6.43;0.90;;;;;;;15.32;59.35;101015.88;5059270;28;20907;-79
2023/05/16 11:49:12;;;;;;;5.57;1.10;;;;;;;15.49;58.67;101006.81;5059058;28;20546;-79
2023/05/16 11:51:39;;;;;;;6.93;1.30;;;;;;;15.45;60.63;101011.34;5059468;28;20444;-78
2023/05/16 11:54:09;;;;;;;5.47;1.23;;;;;;;15.44;58.25;101009.72;5058475;28;20450;-78
2023/05/16 11:56:36;;;;;;;4.50;0.90;;;;;;;15.63;59.72;101017.59;5058986;28;20505;-78
2023/05/16 11:59:03;;;;;;;5.57;1.63;;;;;;;15.74;57.71;101021.59;5058368;28;20434;-78
2023/05/16 12:01:34;;;;;;;7.63;1.40;;;;;;;15.53;58.29;101020.63;5057975;28;20454;-79
2023/05/16 12:04:01;;;;;;;12.33;1.80;;;;;;;15.75;57.06;101014.22;5057426;28;20434;-78
2023/05/16 12:06:29;;;;;;;9.10;1.13;;;;;;;16.08;56.82;101015.22;5055997;28;20531;-78
2023/05/16 12:08:56;;;;;;;5.50;0.97;;;;;;;16.35;54.86;101018.66;5058161;28;20453;-78
2023/05/16 12:11:25;;;;;;;6.23;1.47;;;;;;;16.49;56.38;101021.16;5060036;28;20457;-79
2023/05/16 12:13:52;;;;;;;5.83;1.03;;;;;;;16.62;54.84;101020.91;5060147;28;20481;-79
2023/05/16 12:16:19;;;;;;;7.53;1.30;;;;;;;16.53;53.68;101028.38;5057619;28;20484;-78
2023/05/16 12:18:46;;;;;;;4.80;0.90;;;;;;;17.00;52.30;101016.50;5057443;28;20504;-78
2023/05/16 12:21:13;;;;;;;5.50;1.27;;;;;;;16.96;51.45;101029.28;5057512;28;20511;-79